sensor_id;sensor_type;location;lat;lon;timestamp;pressure;altitude;pressure_sealevel;temperature;humidity
75317;BME280;63913;51.492;10.368;2024-03-23T00:53:39;97623.44;;;8.22;94.04
75317;BME280;63913;51.492;10.368;2024-03-23T00:56:04;97625.91;;;8.16;93.25
75317;BME280;63913;51.492;10.368;2024-03-23T00:58:30;97620.78;;;8.16;93.82
75317;BME280;63913;51.492;10.368;2024-03-23T01:00:55;97613.06;;;8.15;94.32
75317;BME280;63913;51.492;10.368;2024-03-23T01:03:21;97611.34;;;8.14;94.49
75317;BME280;63913;51.492;10.368;2024-03-23T01:05:46;97605.34;;;8.10;94.70
75317;BME280;63913;51.492;10.368;2024-03-23T01:08:11;97602.75;;;8.09;94.28
75317;BME280;63913;51.492;10.368;2024-03-23T01:10:37;97605.28;;;8.09;94.22
75317;BME280;63913;51.492;10.368;2024-03-23T01:13:02;97605.34;;;8.10;94.29
75317;BME280;63913;51.492;10.368;2024-03-23T01:15:27;97614.72;;;8.11;94.51
75317;BME280;63913;51.492;10.368;2024-03-23T01:17:53;97588.28;;;8.11;93.94
75317;BME280;63913;51.492;10.368;2024-03-23T01:20:18;97576.31;;;8.11;93.94
75317;BME280;63913;51.492;10.368;2024-03-23T01:22:43;97569.53;;;8.13;94.04
75317;BME280;63913;51.492;10.368;2024-03-23T01:25:09;97579.69;;;8.09;95.11
75317;BME280;63913;51.492;10.368;2024-03-23T01:27:34;97572.06;;;8.10;94.40
75317;BME280;63913;51.492;10.368;2024-03-23T01:29:59;97571.16;;;8.08;94.88
75317;BME280;63913;51.492;10.368;2024-03-23T01:32:25;97579.63;;;8.05;95.33
75317;BME280;63913;51.492;10.368;2024-03-23T01:34:50;97583.03;;;8.04;94.74
75317;BME280;63913;51.492;10.368;2024-03-23T01:37:15;97573.56;;;7.99;94.88
75317;BME280;63913;51.492;10.368;2024-03-23T01:39:41;97565.06;;;8.03;94.40
75317;BME280;63913;51.492;10.368;2024-03-23T01:42:06;97553.19;;;8.07;94.72
75317;BME280;63913;51.492;10.368;2024-03-23T01:44:31;97538.69;;;8.05;94.47
75317;BME280;63913;51.492;10.368;2024-03-23T01:46:57;97526.94;;;8.17;94.06
75317;BME280;63913;51.492;10.368;2024-03-23T01:49:22;97515.84;;;8.19;93.13
75317;BME280;63913;51.492;10.368;2024-03-23T01:51:47;97511.47;;;8.12;93.09
75317;BME280;63913;51.492;10.368;2024-03-23T01:54:13;97502.81;;;8.02;94.01
75317;BME280;63913;51.492;10.368;2024-03-23T01:56:38;97506.09;;;7.95;94.17
75317;BME280;63913;51.492;10.368;2024-03-23T01:59:05;97499.97;;;7.86;94.36
75317;BME280;63913;51.492;10.368;2024-03-23T02:01:31;97503.13;;;7.71;94.39
75317;BME280;63913;51.492;10.368;2024-03-23T02:03:56;97504.88;;;7.74;95.50
75317;BME280;63913;51.492;10.368;2024-03-23T02:06:22;97501.50;;;7.76;95.68
75317;BME280;63913;51.492;10.368;2024-03-23T02:08:49;97490.41;;;7.76;95.10
75317;BME280;63913;51.492;10.368;2024-03-23T02:11:14;97488.72;;;7.76;94.99
75317;BME280;63913;51.492;10.368;2024-03-23T02:13:40;97480.28;;;7.82;94.75
75317;BME280;63913;51.492;10.368;2024-03-23T02:16:06;97473.47;;;7.82;94.24
75317;BME280;63913;51.492;10.368;2024-03-23T02:18:32;97476.94;;;7.86;94.44
75317;BME280;63913;51.492;10.368;2024-03-23T02:20:57;97477.72;;;7.82;94.78
75317;BME280;63913;51.492;10.368;2024-03-23T02:23:23;97477.75;;;7.83;94.74
75317;BME280;63913;51.492;10.368;2024-03-23T02:25:49;97477.72;;;7.82;95.23
75317;BME280;63913;51.492;10.368;2024-03-23T02:28:15;97474.25;;;7.80;96.03
75317;BME280;63913;51.492;10.368;2024-03-23T02:30:40;97472.44;;;7.73;96.59
75317;BME280;63913;51.492;10.368;2024-03-23T02:33:05;97460.53;;;7.75;96.75
75317;BME280;63913;51.492;10.368;2024-03-23T02:35:31;97454.63;;;7.79;96.34
75317;BME280;63913;51.492;10.368;2024-03-23T02:37:56;97446.22;;;7.84;96.14
75317;BME280;63913;51.492;10.368;2024-03-23T02:40:25;97450.53;;;7.88;96.01
75317;BME280;63913;51.492;10.368;2024-03-23T02:42:52;97455.59;;;7.84;95.84
75317;BME280;63913;51.492;10.368;2024-03-23T02:45:17;97451.25;;;7.78;96.77
75317;BME280;63913;51.492;10.368;2024-03-23T02:47:42;97460.59;;;7.79;96.85
75317;BME280;63913;51.492;10.368;2024-03-23T02:50:08;97453.81;;;7.81;96.26
75317;BME280;63913;51.492;10.368;2024-03-23T02:52:34;97446.16;;;7.81;95.79
75317;BME280;63913;51.492;10.368;2024-03-23T02:54:59;97445.28;;;7.81;96.15
75317;BME280;63913;51.492;10.368;2024-03-23T02:57:27;97432.50;;;7.81;95.26
75317;BME280;63913;51.492;10.368;2024-03-23T02:59:52;97439.31;;;7.80;96.33
75317;BME280;63913;51.492;10.368;2024-03-23T03:02:17;97430.78;;;7.81;96.17
75317;BME280;63913;51.492;10.368;2024-03-23T03:04:43;97424.00;;;7.83;96.14
75317;BME280;63913;51.492;10.368;2024-03-23T03:07:08;97428.22;;;7.78;96.43
75317;BME280;63913;51.492;10.368;2024-03-23T03:09:33;97429.09;;;7.82;97.69
75317;BME280;63913;51.492;10.368;2024-03-23T03:12:03;97430.78;;;7.78;98.91
75317;BME280;63913;51.492;10.368;2024-03-23T03:14:28;97429.84;;;7.75;100.00
75317;BME280;63913;51.492;10.368;2024-03-23T03:16:54;97428.97;;;7.74;100.00
75317;BME280;63913;51.492;10.368;2024-03-23T03:19:19;97420.47;;;7.75;100.00
75317;BME280;63913;51.492;10.368;2024-03-23T03:21:45;97418.84;;;7.80;100.00
75317;BME280;63913;51.492;10.368;2024-03-23T03:24:10;97416.19;;;7.74;100.00
75317;BME280;63913;51.492;10.368;2024-03-23T03:26:35;97417.06;;;7.75;100.00
75317;BME280;63913;51.492;10.368;2024-03-23T03:29:02;97417.09;;;7.78;100.00
75317;BME280;63913;51.492;10.368;2024-03-23T03:31:27;97406.69;;;7.67;100.00
75317;BME280;63913;51.492;10.368;2024-03-23T03:33:52;97396.44;;;7.65;100.00
75317;BME280;63913;51.492;10.368;2024-03-23T03:36:18;97393.81;;;7.61;100.00
75317;BME280;63913;51.492;10.368;2024-03-23T03:38:43;97400.41;;;7.48;100.00
75317;BME280;63913;51.492;10.368;2024-03-23T03:41:08;97387.53;;;7.42;100.00
75317;BME280;63913;51.492;10.368;2024-03-23T03:43:34;97384.97;;;7.42;100.00
75317;BME280;63913;51.492;10.368;2024-03-23T03:46:00;97382.38;;;7.39;100.00
75317;BME280;63913;51.492;10.368;2024-03-23T03:48:26;97378.91;;;7.36;100.00
75317;BME280;63913;51.492;10.368;2024-03-23T03:50:52;97383.91;;;7.28;100.00
75317;BME280;63913;51.492;10.368;2024-03-23T03:53:18;97379.72;;;7.33;100.00
75317;BME280;63913;51.492;10.368;2024-03-23T03:55:43;97377.88;;;7.26;100.00
75317;BME280;63913;51.492;10.368;2024-03-23T03:58:08;97371.13;;;7.28;100.00
75317;BME280;63913;51.492;10.368;2024-03-23T04:00:34;97359.97;;;7.24;100.00
75317;BME280;63913;51.492;10.368;2024-03-23T04:02:59;97353.97;;;7.22;100.00
75317;BME280;63913;51.492;10.368;2024-03-23T04:05:24;97352.94;;;7.11;100.00
75317;BME280;63913;51.492;10.368;2024-03-23T04:07:50;97348.72;;;7.13;100.00
75317;BME280;63913;51.492;10.368;2024-03-23T04:10:15;97346.91;;;7.08;100.00
75317;BME280;63913;51.492;10.368;2024-03-23T04:12:41;97339.25;;;7.09;100.00
75317;BME280;63913;51.492;10.368;2024-03-23T04:15:07;97329.84;;;7.05;100.00
75317;BME280;63913;51.492;10.368;2024-03-23T04:17:33;97323.84;;;7.03;100.00
75317;BME280;63913;51.492;10.368;2024-03-23T04:20:00;97328.13;;;7.06;100.00
75317;BME280;63913;51.492;10.368;2024-03-23T04:22:26;97327.25;;;7.04;100.00
75317;BME280;63913;51.492;10.368;2024-03-23T04:24:56;97329.44;;;6.84;100.00
75317;BME280;63913;51.492;10.368;2024-03-23T04:27:22;97336.44;;;6.94;100.00
75317;BME280;63913;51.492;10.368;2024-03-23T04:29:48;97338.19;;;6.95;100.00
75317;BME280;63913;51.492;10.368;2024-03-23T04:32:14;97335.69;;;7.00;100.00
75317;BME280;63913;51.492;10.368;2024-03-23T04:34:39;97324.53;;;6.95;100.00
75317;BME280;63913;51.492;10.368;2024-03-23T04:37:05;97324.50;;;6.93;100.00
75317;BME280;63913;51.492;10.368;2024-03-23T04:39:30;97327.84;;;6.90;100.00
75317;BME280;63913;51.492;10.368;2024-03-23T04:41:56;97326.88;;;6.81;100.00
75317;BME280;63913;51.492;10.368;2024-03-23T04:44:21;97324.22;;;6.76;100.00
75317;BME280;63913;51.492;10.368;2024-03-23T04:46:46;97324.94;;;6.69;100.00
75317;BME280;63913;51.492;10.368;2024-03-23T04:49:12;97319.81;;;6.69;100.00
75317;BME280;63913;51.492;10.368;2024-03-23T04:51:38;97323.28;;;6.71;100.00
75317;BME280;63913;51.492;10.368;2024-03-23T04:54:03;97322.31;;;6.65;100.00
75317;BME280;63913;51.492;10.368;2024-03-23T04:56:30;97325.56;;;6.56;100.00
75317;BME280;63913;51.492;10.368;2024-03-23T04:58:56;97309.44;;;6.60;100.00
75317;BME280;63913;51.492;10.368;2024-03-23T05:01:26;97317.03;;;6.57;100.00
75317;BME280;63913;51.492;10.368;2024-03-23T05:03:51;97313.59;;;6.55;100.00
75317;BME280;63913;51.492;10.368;2024-03-23T05:06:18;97321.19;;;6.52;100.00
75317;BME280;63913;51.492;10.368;2024-03-23T05:08:43;97316.00;;;6.46;100.00
75317;BME280;63913;51.492;10.368;2024-03-23T05:11:09;97305.69;;;6.43;100.00
75317;BME280;63913;51.492;10.368;2024-03-23T05:13:34;97318.00;;;6.19;100.00
75317;BME280;63913;51.492;10.368;2024-03-23T05:15:59;97329.13;;;6.22;100.00
75317;BME280;63913;51.492;10.368;2024-03-23T05:18:25;97318.63;;;6.08;100.00
75317;BME280;63913;51.492;10.368;2024-03-23T05:20:56;97330.44;;;6.03;100.00
75317;BME280;63913;51.492;10.368;2024-03-23T05:23:22;97332.91;;;6.00;100.00
75317;BME280;63913;51.492;10.368;2024-03-23T05:25:48;97333.47;;;5.87;100.00
75317;BME280;63913;51.492;10.368;2024-03-23T05:28:13;97340.84;;;5.75;100.00
75317;BME280;63913;51.492;10.368;2024-03-23T05:30:38;97335.88;;;5.81;100.00
75317;BME280;63913;51.492;10.368;2024-03-23T05:33:05;97330.03;;;5.87;100.00
75317;BME280;63913;51.492;10.368;2024-03-23T05:35:30;97317.22;;;5.82;100.00
75317;BME280;63913;51.492;10.368;2024-03-23T05:37:56;97322.16;;;5.76;100.00
75317;BME280;63913;51.492;10.368;2024-03-23T05:40:21;97325.66;;;5.80;100.00
75317;BME280;63913;51.492;10.368;2024-03-23T05:42:46;97328.09;;;5.75;100.00
75317;BME280;63913;51.492;10.368;2024-03-23T05:45:11;97335.59;;;5.69;100.00
75317;BME280;63913;51.492;10.368;2024-03-23T05:47:37;97340.69;;;5.69;100.00
75317;BME280;63913;51.492;10.368;2024-03-23T05:50:03;97344.19;;;5.72;100.00
75317;BME280;63913;51.492;10.368;2024-03-23T05:52:28;97359.25;;;5.62;100.00
75317;BME280;63913;51.492;10.368;2024-03-23T05:54:54;97362.59;;;5.61;100.00
75317;BME280;63913;51.492;10.368;2024-03-23T05:57:20;97363.25;;;5.52;100.00
75317;BME280;63913;51.492;10.368;2024-03-23T05:59:46;97361.25;;;5.39;100.00
75317;BME280;63913;51.492;10.368;2024-03-23T06:02:11;97369.84;;;5.43;100.00
75317;BME280;63913;51.492;10.368;2024-03-23T06:04:36;97364.66;;;5.40;100.00
75317;BME280;63913;51.492;10.368;2024-03-23T06:07:02;97361.13;;;5.33;100.00
75317;BME280;63913;51.492;10.368;2024-03-23T06:09:28;97354.88;;;5.22;100.00
75317;BME280;63913;51.492;10.368;2024-03-23T06:11:56;97355.63;;;5.16;100.00
75317;BME280;63913;51.492;10.368;2024-03-23T06:14:21;97357.44;;;5.22;100.00
75317;BME280;63913;51.492;10.368;2024-03-23T06:16:47;97358.22;;;5.19;100.00
75317;BME280;63913;51.492;10.368;2024-03-23T06:19:12;97364.16;;;5.18;100.00
75317;BME280;63913;51.492;10.368;2024-03-23T06:21:43;97373.25;;;5.09;100.00
75317;BME280;63913;51.492;10.368;2024-03-23T06:24:08;97372.44;;;5.10;100.00
75317;BME280;63913;51.492;10.368;2024-03-23T06:26:33;97363.97;;;5.12;100.00
75317;BME280;63913;51.492;10.368;2024-03-23T06:28:59;97373.31;;;5.10;100.00
75317;BME280;63913;51.492;10.368;2024-03-23T06:31:24;97376.72;;;5.11;100.00
75317;BME280;63913;51.492;10.368;2024-03-23T06:33:49;97377.53;;;5.10;100.00
75317;BME280;63913;51.492;10.368;2024-03-23T06:36:15;97380.94;;;5.10;100.00
75317;BME280;63913;51.492;10.368;2024-03-23T06:38:40;97385.72;;;4.98;100.00
75317;BME280;63913;51.492;10.368;2024-03-23T06:41:05;97381.59;;;5.03;100.00
75317;BME280;63913;51.492;10.368;2024-03-23T06:43:31;97394.31;;;5.03;100.00
75317;BME280;63913;51.492;10.368;2024-03-23T06:45:57;97397.09;;;5.12;100.00
75317;BME280;63913;51.492;10.368;2024-03-23T06:48:22;97387.00;;;5.15;100.00
75317;BME280;63913;51.492;10.368;2024-03-23T06:50:48;97397.72;;;5.02;100.00
75317;BME280;63913;51.492;10.368;2024-03-23T06:53:14;97399.25;;;4.97;100.00
75317;BME280;63913;51.492;10.368;2024-03-23T06:55:40;97405.88;;;4.90;100.00
75317;BME280;63913;51.492;10.368;2024-03-23T06:58:05;97395.03;;;4.97;100.00
75317;BME280;63913;51.492;10.368;2024-03-23T07:00:31;97401.66;;;4.91;100.00
75317;BME280;63913;51.492;10.368;2024-03-23T07:02:57;97393.25;;;4.95;100.00
75317;BME280;63913;51.492;10.368;2024-03-23T07:05:23;97391.44;;;4.89;100.00
75317;BME280;63913;51.492;10.368;2024-03-23T07:07:48;97391.63;;;4.97;100.00
75317;BME280;63913;51.492;10.368;2024-03-23T07:10:13;97401.84;;;4.98;100.00
75317;BME280;63913;51.492;10.368;2024-03-23T07:12:39;97408.28;;;4.84;100.00
75317;BME280;63913;51.492;10.368;2024-03-23T07:15:04;97406.28;;;4.74;100.00
75317;BME280;63913;51.492;10.368;2024-03-23T07:17:30;97410.81;;;4.84;100.00
75317;BME280;63913;51.492;10.368;2024-03-23T07:19:55;97411.09;;;4.64;100.00
75317;BME280;63913;51.492;10.368;2024-03-23T07:22:20;97417.13;;;4.67;100.00
75317;BME280;63913;51.492;10.368;2024-03-23T07:24:46;97417.78;;;4.60;100.00
75317;BME280;63913;51.492;10.368;2024-03-23T07:27:12;97426.03;;;4.51;100.00
75317;BME280;63913;51.492;10.368;2024-03-23T07:29:37;97436.31;;;4.56;100.00
75317;BME280;63913;51.492;10.368;2024-03-23T07:32:03;97432.00;;;4.52;100.00
75317;BME280;63913;51.492;10.368;2024-03-23T07:34:28;97436.28;;;4.54;100.00
75317;BME280;63913;51.492;10.368;2024-03-23T07:36:53;97436.91;;;4.46;100.00
75317;BME280;63913;51.492;10.368;2024-03-23T07:39:19;97441.63;;;4.34;100.00
75317;BME280;63913;51.492;10.368;2024-03-23T07:41:45;97446.88;;;4.40;100.00
75317;BME280;63913;51.492;10.368;2024-03-23T07:44:10;97439.84;;;4.31;100.00
75317;BME280;63913;51.492;10.368;2024-03-23T07:46:36;97439.03;;;4.32;100.00
75317;BME280;63913;51.492;10.368;2024-03-23T07:49:01;97451.03;;;4.36;100.00
75317;BME280;63913;51.492;10.368;2024-03-23T07:51:26;97444.66;;;4.22;100.00
75317;BME280;63913;51.492;10.368;2024-03-23T07:53:52;97446.44;;;4.25;100.00
75317;BME280;63913;51.492;10.368;2024-03-23T07:56:18;97464.94;;;4.19;100.00
75317;BME280;63913;51.492;10.368;2024-03-23T07:58:45;97467.31;;;4.14;100.00
75317;BME280;63913;51.492;10.368;2024-03-23T08:01:15;97464.59;;;4.08;100.00
75317;BME280;63913;51.492;10.368;2024-03-23T08:03:43;97460.22;;;4.03;100.00
75317;BME280;63913;51.492;10.368;2024-03-23T08:06:15;97458.47;;;4.02;100.00
75317;BME280;63913;51.492;10.368;2024-03-23T08:08:41;97466.38;;;4.11;100.00
75317;BME280;63913;51.492;10.368;2024-03-23T08:11:07;97467.19;;;4.10;100.00
75317;BME280;63913;51.492;10.368;2024-03-23T08:13:34;97461.06;;;4.03;100.00
75317;BME280;63913;51.492;10.368;2024-03-23T08:16:00;97460.63;;;4.16;100.00
75317;BME280;63913;51.492;10.368;2024-03-23T08:18:26;97453.31;;;4.27;100.00
75317;BME280;63913;51.492;10.368;2024-03-23T08:21:18;97461.13;;;4.33;100.00
75317;BME280;63913;51.492;10.368;2024-03-23T08:23:43;97467.06;;;4.34;100.00
75317;BME280;63913;51.492;10.368;2024-03-23T08:26:11;97462.91;;;4.36;100.00
75317;BME280;63913;51.492;10.368;2024-03-23T08:28:37;97469.94;;;4.44;100.00
75317;BME280;63913;51.492;10.368;2024-03-23T08:31:13;97483.53;;;4.45;100.00
75317;BME280;63913;51.492;10.368;2024-03-23T08:33:39;97481.88;;;4.47;100.00
75317;BME280;63913;51.492;10.368;2024-03-23T08:36:06;97487.88;;;4.49;100.00
75317;BME280;63913;51.492;10.368;2024-03-23T08:38:33;97489.50;;;4.47;100.00
75317;BME280;63913;51.492;10.368;2024-03-23T08:40:59;97489.78;;;4.56;100.00
75317;BME280;63913;51.492;10.368;2024-03-23T08:43:25;97491.28;;;4.49;100.00
75317;BME280;63913;51.492;10.368;2024-03-23T08:45:51;97492.28;;;4.54;100.00
75317;BME280;63913;51.492;10.368;2024-03-23T08:48:17;97500.06;;;4.59;100.00
75317;BME280;63913;51.492;10.368;2024-03-23T08:50:43;97494.09;;;4.58;100.00
75317;BME280;63913;51.492;10.368;2024-03-23T08:53:09;97510.03;;;4.51;100.00
75317;BME280;63913;51.492;10.368;2024-03-23T08:55:34;97502.22;;;4.45;100.00
75317;BME280;63913;51.492;10.368;2024-03-23T08:58:00;97509.75;;;4.42;100.00
75317;BME280;63913;51.492;10.368;2024-03-23T09:00:26;97508.88;;;4.42;100.00
75317;BME280;63913;51.492;10.368;2024-03-23T09:02:51;97521.91;;;4.24;100.00
75317;BME280;63913;51.492;10.368;2024-03-23T09:05:16;97519.94;;;4.15;100.00
75317;BME280;63913;51.492;10.368;2024-03-23T09:07:43;97520.16;;;4.23;100.00
75317;BME280;63913;51.492;10.368;2024-03-23T09:10:08;97522.81;;;4.26;100.00
75317;BME280;63913;51.492;10.368;2024-03-23T09:12:34;97528.91;;;4.31;100.00
75317;BME280;63913;51.492;10.368;2024-03-23T09:14:59;97525.06;;;4.44;100.00
75317;BME280;63913;51.492;10.368;2024-03-23T09:17:25;97522.50;;;4.44;100.00
75317;BME280;63913;51.492;10.368;2024-03-23T09:19:50;97526.91;;;4.49;100.00
75317;BME280;63913;51.492;10.368;2024-03-23T09:22:15;97525.13;;;4.45;100.00
75317;BME280;63913;51.492;10.368;2024-03-23T09:24:40;97517.47;;;4.45;100.00
75317;BME280;63913;51.492;10.368;2024-03-23T09:27:06;97530.22;;;4.45;100.00
75317;BME280;63913;51.492;10.368;2024-03-23T09:29:31;97543.19;;;4.54;100.00
75317;BME280;63913;51.492;10.368;2024-03-23T09:31:57;97537.44;;;4.60;100.00
75317;BME280;63913;51.492;10.368;2024-03-23T09:34:22;97534.94;;;4.63;100.00
75317;BME280;63913;51.492;10.368;2024-03-23T09:36:51;97536.91;;;4.72;100.00
75317;BME280;63913;51.492;10.368;2024-03-23T09:39:17;97530.56;;;4.87;100.00
75317;BME280;63913;51.492;10.368;2024-03-23T09:41:42;97539.41;;;4.98;100.00
75317;BME280;63913;51.492;10.368;2024-03-23T09:44:08;97536.78;;;4.97;100.00
75317;BME280;63913;51.492;10.368;2024-03-23T09:46:33;97540.25;;;4.99;100.00
75317;BME280;63913;51.492;10.368;2024-03-23T09:49:02;97538.78;;;5.07;100.00
75317;BME280;63913;51.492;10.368;2024-03-23T09:51:30;97547.72;;;5.23;100.00
75317;BME280;63913;51.492;10.368;2024-03-23T09:53:55;97540.44;;;5.36;100.00
75317;BME280;63913;51.492;10.368;2024-03-23T09:56:22;97544.66;;;5.34;100.00
75317;BME280;63913;51.492;10.368;2024-03-23T09:58:49;97543.03;;;5.38;100.00
75317;BME280;63913;51.492;10.368;2024-03-23T10:01:14;97544.66;;;5.36;100.00
75317;BME280;63913;51.492;10.368;2024-03-23T10:03:46;97543.84;;;5.37;100.00
75317;BME280;63913;51.492;10.368;2024-03-23T10:06:11;97548.09;;;5.36;100.00
75317;BME280;63913;51.492;10.368;2024-03-23T10:08:36;97554.25;;;5.45;100.00
75317;BME280;63913;51.492;10.368;2024-03-23T10:11:13;97541.44;;;5.42;100.00
75317;BME280;63913;51.492;10.368;2024-03-23T10:13:42;97550.09;;;5.48;100.00
75317;BME280;63913;51.492;10.368;2024-03-23T10:16:08;97552.84;;;5.56;100.00
75317;BME280;63913;51.492;10.368;2024-03-23T10:18:37;97561.72;;;5.70;99.45
75317;BME280;63913;51.492;10.368;2024-03-23T10:23:31;97547.25;;;5.69;99.78
75317;BME280;63913;51.492;10.368;2024-03-23T10:28:59;97535.06;;;6.62;93.54
75317;BME280;63913;51.492;10.368;2024-03-23T10:31:37;97519.28;;;6.80;89.03
75317;BME280;63913;51.492;10.368;2024-03-23T10:34:03;97524.09;;;7.08;91.27
75317;BME280;63913;51.492;10.368;2024-03-23T10:36:29;97527.03;;;7.26;87.69
75317;BME280;63913;51.492;10.368;2024-03-23T10:38:55;97512.00;;;7.43;85.21
75317;BME280;63913;51.492;10.368;2024-03-23T10:41:26;97501.94;;;7.52;87.75
75317;BME280;63913;51.492;10.368;2024-03-23T10:43:53;97508.50;;;7.86;84.16
75317;BME280;63913;51.492;10.368;2024-03-23T10:46:19;97533.72;;;7.65;82.94
75317;BME280;63913;51.492;10.368;2024-03-23T10:48:44;97501.53;;;7.79;84.10
75317;BME280;63913;51.492;10.368;2024-03-23T10:51:10;97502.53;;;7.86;81.69
75317;BME280;63913;51.492;10.368;2024-03-23T10:53:35;97509.88;;;8.20;82.30
75317;BME280;63913;51.492;10.368;2024-03-23T10:56:02;97522.38;;;8.53;81.53
75317;BME280;63913;51.492;10.368;2024-03-23T10:58:31;97517.41;;;8.64;81.49
75317;BME280;63913;51.492;10.368;2024-03-23T11:00:58;97504.44;;;7.99;77.60
75317;BME280;63913;51.492;10.368;2024-03-23T11:03:34;97512.31;;;7.60;79.12
75317;BME280;63913;51.492;10.368;2024-03-23T11:06:02;97520.13;;;7.21;77.62
75317;BME280;63913;51.492;10.368;2024-03-23T11:08:32;97514.56;;;7.00;80.53
75317;BME280;63913;51.492;10.368;2024-03-23T11:11:22;97519.47;;;6.90;82.00
75317;BME280;63913;51.492;10.368;2024-03-23T11:13:53;97529.50;;;6.81;81.92
75317;BME280;63913;51.492;10.368;2024-03-23T11:16:28;97512.38;;;6.76;82.71
75317;BME280;63913;51.492;10.368;2024-03-23T11:19:37;97522.19;;;6.98;81.57
75317;BME280;63913;51.492;10.368;2024-03-23T11:22:03;97505.41;;;7.56;80.78
75317;BME280;63913;51.492;10.368;2024-03-23T11:24:31;97506.19;;;8.03;78.51
75317;BME280;63913;51.492;10.368;2024-03-23T11:26:56;97500.94;;;8.47;76.77
75317;BME280;63913;51.492;10.368;2024-03-23T11:29:25;97495.19;;;8.63;74.61
75317;BME280;63913;51.492;10.368;2024-03-23T11:31:52;97510.03;;;8.87;74.04
75317;BME280;63913;51.492;10.368;2024-03-23T11:34:19;97504.50;;;9.23;73.37
75317;BME280;63913;51.492;10.368;2024-03-23T11:36:46;97507.06;;;9.24;69.54
75317;BME280;63913;51.492;10.368;2024-03-23T11:39:15;97502.94;;;9.37;70.24
75317;BME280;63913;51.492;10.368;2024-03-23T11:41:52;97490.28;;;9.53;68.15
75317;BME280;63913;51.492;10.368;2024-03-23T11:44:19;97489.44;;;9.57;68.99
75317;BME280;63913;51.492;10.368;2024-03-23T11:46:46;97486.03;;;9.58;71.46
75317;BME280;63913;51.492;10.368;2024-03-23T11:49:26;97481.78;;;9.61;71.08
75317;BME280;63913;51.492;10.368;2024-03-23T11:51:52;97491.00;;;9.39;71.40
75317;BME280;63913;51.492;10.368;2024-03-23T11:54:23;97472.56;;;8.96;72.16
75317;BME280;63913;51.492;10.368;2024-03-23T11:57:07;97483.28;;;8.66;73.08
75317;BME280;63913;51.492;10.368;2024-03-23T11:59:37;97491.41;;;8.38;75.53
75317;BME280;63913;51.492;10.368;2024-03-23T12:02:10;97573.34;;;7.42;81.60
75317;BME280;63913;51.492;10.368;2024-03-23T12:04:40;97588.50;;;6.19;90.89
75317;BME280;63913;51.492;10.368;2024-03-23T12:07:15;97568.41;;;5.65;91.64
75317;BME280;63913;51.492;10.368;2024-03-23T12:09:43;97589.66;;;5.34;91.38
75317;BME280;63913;51.492;10.368;2024-03-23T12:12:11;97578.66;;;5.36;93.84
75317;BME280;63913;51.492;10.368;2024-03-23T12:14:38;97573.47;;;5.32;94.01
75317;BME280;63913;51.492;10.368;2024-03-23T12:17:10;97569.47;;;5.42;95.96
75317;BME280;63913;51.492;10.368;2024-03-23T12:19:36;97567.94;;;5.48;95.84
75317;BME280;63913;51.492;10.368;2024-03-23T12:22:03;97559.78;;;5.61;97.03
75317;BME280;63913;51.492;10.368;2024-03-23T12:24:29;97553.34;;;5.74;97.40
75317;BME280;63913;51.492;10.368;2024-03-23T12:26:54;97545.78;;;5.79;95.51
75317;BME280;63913;51.492;10.368;2024-03-23T12:29:20;97530.91;;;5.94;95.12
75317;BME280;63913;51.492;10.368;2024-03-23T12:31:45;97517.56;;;6.04;93.27
75317;BME280;63913;51.492;10.368;2024-03-23T12:34:11;97523.78;;;6.15;93.33
75317;BME280;63913;51.492;10.368;2024-03-23T12:36:36;97527.75;;;6.40;91.55
75317;BME280;63913;51.492;10.368;2024-03-23T12:39:01;97516.38;;;6.63;88.73
75317;BME280;63913;51.492;10.368;2024-03-23T12:41:27;97510.41;;;7.05;90.15
75317;BME280;63913;51.492;10.368;2024-03-23T12:43:52;97517.41;;;7.15;89.47
75317;BME280;63913;51.492;10.368;2024-03-23T12:46:18;97514.28;;;7.28;89.12
75317;BME280;63913;51.492;10.368;2024-03-23T12:48:44;97510.75;;;7.23;87.50
75317;BME280;63913;51.492;10.368;2024-03-23T12:51:10;97510.66;;;7.17;89.05
75317;BME280;63913;51.492;10.368;2024-03-23T12:53:35;97526.91;;;7.20;83.72
75317;BME280;63913;51.492;10.368;2024-03-23T12:56:00;97535.00;;;7.42;83.16
75317;BME280;63913;51.492;10.368;2024-03-23T12:58:26;97534.91;;;7.39;83.26
75317;BME280;63913;51.492;10.368;2024-03-23T13:00:51;97553.19;;;7.15;80.69
75317;BME280;63913;51.492;10.368;2024-03-23T13:03:19;97555.13;;;6.84;79.87
75317;BME280;63913;51.492;10.368;2024-03-23T13:05:54;97559.00;;;6.67;81.71
75317;BME280;63913;51.492;10.368;2024-03-23T13:08:19;97569.47;;;6.40;84.59
75317;BME280;63913;51.492;10.368;2024-03-23T13:10:44;97564.63;;;6.17;86.67
75317;BME280;63913;51.492;10.368;2024-03-23T13:13:10;97577.00;;;6.00;86.67
75317;BME280;63913;51.492;10.368;2024-03-23T13:15:35;97588.44;;;5.83;89.43
75317;BME280;63913;51.492;10.368;2024-03-23T13:18:00;97599.31;;;5.77;90.51
75317;BME280;63913;51.492;10.368;2024-03-23T13:20:26;97590.53;;;5.66;91.45
75317;BME280;63913;51.492;10.368;2024-03-23T13:22:51;97584.13;;;5.49;92.23
75317;BME280;63913;51.492;10.368;2024-03-23T13:25:17;97593.75;;;5.59;94.53
75317;BME280;63913;51.492;10.368;2024-03-23T13:27:44;97573.38;;;5.60;92.64
75317;BME280;63913;51.492;10.368;2024-03-23T13:30:10;97553.13;;;5.98;92.51
75317;BME280;63913;51.492;10.368;2024-03-23T13:32:35;97548.19;;;6.40;93.34
75317;BME280;63913;51.492;10.368;2024-03-23T13:35:01;97553.63;;;6.55;92.39
75317;BME280;63913;51.492;10.368;2024-03-23T13:37:26;97547.19;;;6.71;88.68
75317;BME280;63913;51.492;10.368;2024-03-23T13:39:52;97537.88;;;7.15;92.97
75317;BME280;63913;51.492;10.368;2024-03-23T13:42:17;97532.50;;;7.45;88.09
75317;BME280;63913;51.492;10.368;2024-03-23T13:44:43;97542.34;;;7.70;88.11
75317;BME280;63913;51.492;10.368;2024-03-23T13:47:08;97535.75;;;7.83;84.05
75317;BME280;63913;51.492;10.368;2024-03-23T13:49:34;97542.88;;;8.00;82.89